createdAt,value
2022-10-09T00:03:03.464Z,89.93
2022-10-09T00:08:05.515Z,89.95
2022-10-09T00:13:07.172Z,90.04
2022-10-09T00:18:10.575Z,90.10
2022-10-09T00:23:17.515Z,90.17
2022-10-09T00:28:20.279Z,90.34
2022-10-09T00:33:22.233Z,90.40
2022-10-09T00:38:23.936Z,90.25
2022-10-09T00:43:51.344Z,90.56
2022-10-09T00:49:19.232Z,90.84
2022-10-09T00:54:24.809Z,90.86
2022-10-09T00:59:27.473Z,91.14
2022-10-09T01:04:33.687Z,91.14
2022-10-09T01:09:50.616Z,91.37
2022-10-09T01:15:16.832Z,91.49
2022-10-09T01:20:27.893Z,91.79
2022-10-09T01:25:36.540Z,91.93
2022-10-09T01:30:38.629Z,92.08
2022-10-09T01:35:41.791Z,92.33
2022-10-09T01:40:43.897Z,92.70
2022-10-09T01:45:47.603Z,92.72
2022-10-09T01:50:56.261Z,92.74
2022-10-09T01:56:11.667Z,92.95
2022-10-09T02:01:16.411Z,92.98
2022-10-09T02:06:19.462Z,93.30
2022-10-09T02:11:24.018Z,93.49
2022-10-09T02:16:43.839Z,93.66
2022-10-09T02:21:54.531Z,93.77
2022-10-09T02:26:58.708Z,93.99
2022-10-09T02:32:00.417Z,94.23
2022-10-09T02:37:02.649Z,94.33
2022-10-09T02:42:04.470Z,94.49
2022-10-09T02:47:06.347Z,94.64
2022-10-09T02:52:08.016Z,94.72
2022-10-09T02:57:09.791Z,94.92
2022-10-09T03:02:11.749Z,95.16
2022-10-09T03:07:13.530Z,95.30
2022-10-09T03:12:21.270Z,95.42
2022-10-09T03:17:23.015Z,95.61
2022-10-09T03:22:24.661Z,95.85
2022-10-09T03:27:26.319Z,95.99
2022-10-09T03:32:28.054Z,95.94
2022-10-09T03:37:29.786Z,95.95
2022-10-09T03:42:31.632Z,96.11
2022-10-09T03:47:33.293Z,96.35
2022-10-09T03:52:36.316Z,96.31
2022-10-09T03:57:38.675Z,96.26
2022-10-09T04:02:40.374Z,96.51
2022-10-09T04:07:42.168Z,96.62
2022-10-09T04:12:43.849Z,96.75
2022-10-09T04:17:45.491Z,96.87
2022-10-09T04:22:47.467Z,97.08
2022-10-09T04:27:49.433Z,97.37
2022-10-09T04:32:51.569Z,97.33
2022-10-09T04:37:53.455Z,97.11
2022-10-09T04:42:56.362Z,97.46
2022-10-09T04:47:58.209Z,97.71
2022-10-09T04:52:59.866Z,97.86
2022-10-09T04:58:01.510Z,98.11
2022-10-09T05:03:03.280Z,98.38
2022-10-09T05:08:04.984Z,98.48
2022-10-09T05:13:06.807Z,98.62
2022-10-09T05:18:08.468Z,98.55
2022-10-09T05:23:10.084Z,98.43
2022-10-09T05:28:11.844Z,98.57
2022-10-09T05:33:13.568Z,98.54
2022-10-09T05:38:15.310Z,98.71
2022-10-09T05:43:16.987Z,98.71
2022-10-09T05:48:19.273Z,98.70
2022-10-09T05:53:20.979Z,98.86
2022-10-09T05:58:22.683Z,98.90
2022-10-09T06:03:24.411Z,99.14
2022-10-09T06:08:26.176Z,99.31
2022-10-09T06:13:27.840Z,99.64
2022-10-09T06:18:29.515Z,99.70
2022-10-09T06:23:31.947Z,99.47
2022-10-09T06:28:35.423Z,99.67
2022-10-09T06:33:39.438Z,99.60
2022-10-09T06:38:42.415Z,99.32
2022-10-09T06:43:50.354Z,99.06
2022-10-09T06:48:52.311Z,98.96
2022-10-09T06:53:56.873Z,98.86
2022-10-09T06:59:06.755Z,98.62
2022-10-09T07:04:13.483Z,98.42
2022-10-09T07:09:15.964Z,98.23
2022-10-09T07:14:17.885Z,97.41
2022-10-09T07:19:19.778Z,96.70
2022-10-09T07:24:21.556Z,96.05
2022-10-09T07:29:23.289Z,95.81
2022-10-09T07:34:25.063Z,95.40
2022-10-09T07:39:26.812Z,95.04
2022-10-09T07:44:28.506Z,94.61
2022-10-09T07:49:30.178Z,94.16
2022-10-09T07:54:31.814Z,93.82
2022-10-09T07:59:35.792Z,93.12
2022-10-09T08:04:37.612Z,92.09
2022-10-09T08:09:39.764Z,91.90
2022-10-09T08:14:41.454Z,91.26
2022-10-09T08:19:43.069Z,91.12
2022-10-09T08:24:44.715Z,90.75
2022-10-09T08:29:46.360Z,90.87
2022-10-09T08:34:48.164Z,90.80
2022-10-09T08:39:49.791Z,90.61
2022-10-09T08:44:51.447Z,90.16
2022-10-09T08:50:23.987Z,90.21
2022-10-09T08:55:32.996Z,89.44
2022-10-09T09:00:43.438Z,88.50
2022-10-09T09:06:04.880Z,88.06
2022-10-09T09:11:47.492Z,87.44
2022-10-09T09:17:04.967Z,86.85
2022-10-09T09:22:13.452Z,86.44
2022-10-09T09:27:19.736Z,86.23
2022-10-09T09:32:25.201Z,85.78
2022-10-09T09:37:27.589Z,85.40
2022-10-09T09:42:29.516Z,83.91
2022-10-09T09:47:38.665Z,83.18
2022-10-09T09:52:45.640Z,82.97
2022-10-09T09:57:47.646Z,82.47
2022-10-09T10:03:01.181Z,81.09
2022-10-09T10:08:13.587Z,80.67
2022-10-09T10:13:19.413Z,79.89
2022-10-09T10:18:24.353Z,79.42
2022-10-09T10:23:50.312Z,79.20
2022-10-09T10:28:59.169Z,78.92
2022-10-09T10:34:03.446Z,77.93
2022-10-09T10:39:15.157Z,77.81
2022-10-09T10:44:26.004Z,77.88
2022-10-09T10:49:32.865Z,77.64
2022-10-09T10:54:43.111Z,76.80
2022-10-09T11:00:04.198Z,76.41
2022-10-09T11:05:27.066Z,75.10
2022-10-09T11:10:38.925Z,74.14
2022-10-09T11:16:18.687Z,74.18
2022-10-09T11:21:29.954Z,73.93
2022-10-09T11:27:03.003Z,73.65
2022-10-09T11:32:19.850Z,73.75
2022-10-09T11:37:26.858Z,72.78
2022-10-09T11:42:28.952Z,72.11
2022-10-09T11:47:33.271Z,71.52
2022-10-09T11:53:06.153Z,71.35
2022-10-09T11:58:15.065Z,71.14
2022-10-09T12:03:38.348Z,70.92
2022-10-09T12:08:55.130Z,70.37
2022-10-09T12:14:00.010Z,70.53
2022-10-09T12:19:13.622Z,70.66
2022-10-09T12:24:17.881Z,70.42
2022-10-09T12:29:47.267Z,69.97
2022-10-09T12:34:51.113Z,69.82
2022-10-09T12:39:52.720Z,70.01
2022-10-09T12:44:55.878Z,69.81
2022-10-09T12:50:00.111Z,68.85
2022-10-09T12:55:02.378Z,68.47
2022-10-09T13:00:05.286Z,67.94
2022-10-09T13:05:07.235Z,67.23
2022-10-09T13:10:19.148Z,66.89
2022-10-09T13:15:37.147Z,64.82
2022-10-09T13:20:38.899Z,58.32
2022-10-09T13:25:43.018Z,60.77
2022-10-09T13:30:44.764Z,64.16
2022-10-09T13:35:47.048Z,64.48
2022-10-09T13:40:48.727Z,64.29
2022-10-09T13:45:50.545Z,63.50
2022-10-09T13:50:52.512Z,62.66
2022-10-09T13:55:59.987Z,62.80
2022-10-09T14:01:03.627Z,63.30
2022-10-09T14:06:05.593Z,63.55
2022-10-09T14:11:07.413Z,63.82
2022-10-09T14:16:11.189Z,63.87
2022-10-09T14:21:15.486Z,64.20
2022-10-09T14:26:17.448Z,65.38
2022-10-09T14:31:19.979Z,66.03
2022-10-09T14:36:21.682Z,66.44
2022-10-09T14:41:23.451Z,66.60
2022-10-09T14:46:27.142Z,67.13
2022-10-09T14:51:30.722Z,67.73
2022-10-09T14:56:35.255Z,67.98
2022-10-09T15:01:36.916Z,68.04
2022-10-09T15:06:38.612Z,68.02
2022-10-09T15:11:40.358Z,68.31
2022-10-09T15:16:42.251Z,68.59
2022-10-09T15:21:43.912Z,68.85
2022-10-09T15:26:45.558Z,69.07
2022-10-09T15:31:51.412Z,69.34
2022-10-09T15:36:53.091Z,69.54
2022-10-09T15:41:54.800Z,69.77
2022-10-09T15:46:56.579Z,70.06
2022-10-09T15:51:58.368Z,70.49
2022-10-09T15:57:00.052Z,70.81
2022-10-09T16:02:01.808Z,71.32
2022-10-09T16:07:03.884Z,71.73
2022-10-09T16:12:05.755Z,72.12
2022-10-09T16:17:11.133Z,72.61
2022-10-09T16:22:13.228Z,73.08
2022-10-09T16:27:15.001Z,73.75
2022-10-09T16:32:16.780Z,74.40
2022-10-09T16:37:18.455Z,75.01
2022-10-09T16:42:20.791Z,75.29
2022-10-09T16:47:22.460Z,75.30
2022-10-09T16:52:24.102Z,75.48
2022-10-09T16:57:26.088Z,75.93
2022-10-09T17:02:28.718Z,76.06
2022-10-09T17:07:30.539Z,76.46
2022-10-09T17:12:32.362Z,76.93
2022-10-09T17:17:34.163Z,77.05
2022-10-09T17:22:35.892Z,77.37
2022-10-09T17:27:37.666Z,77.66
2022-10-09T17:32:39.711Z,78.03
2022-10-09T17:37:41.387Z,78.24
2022-10-09T17:42:43.084Z,78.61
2022-10-09T17:47:44.848Z,78.96
2022-10-09T17:52:46.572Z,79.25
2022-10-09T17:57:48.778Z,79.71
2022-10-09T18:02:50.562Z,80.12
2022-10-09T18:07:52.600Z,80.41
2022-10-09T18:12:54.628Z,80.71
2022-10-09T18:17:56.527Z,81.18
2022-10-09T18:22:58.395Z,81.45
2022-10-09T18:28:00.516Z,81.54
2022-10-09T18:33:02.269Z,81.52
2022-10-09T18:38:04.803Z,81.59
2022-10-09T18:43:06.850Z,81.76
2022-10-09T18:48:08.636Z,81.81
2022-10-09T18:53:11.500Z,81.80
2022-10-09T18:58:14.995Z,82.24
2022-10-09T19:03:16.639Z,82.43
2022-10-09T19:08:18.342Z,82.74
2022-10-09T19:13:21.368Z,83.18
2022-10-09T19:18:23.139Z,83.60
2022-10-09T19:23:24.873Z,83.90
2022-10-09T19:28:31.093Z,84.20
2022-10-09T19:33:33.014Z,84.69
2022-10-09T19:38:35.182Z,84.95
2022-10-09T19:43:37.374Z,85.33
2022-10-09T19:48:39.095Z,85.78
2022-10-09T19:53:42.754Z,86.05
2022-10-09T19:58:46.599Z,86.11
2022-10-09T20:03:53.319Z,86.30
2022-10-09T20:08:55.761Z,86.66
2022-10-09T20:13:58.872Z,86.73
2022-10-09T20:19:01.796Z,86.87
2022-10-09T20:24:03.974Z,86.70
2022-10-09T20:29:07.153Z,86.95
2022-10-09T20:34:08.902Z,86.82
2022-10-09T20:39:13.193Z,87.37
2022-10-09T20:44:15.027Z,87.49
2022-10-09T20:49:16.688Z,87.63
2022-10-09T20:54:21.811Z,87.89
2022-10-09T20:59:23.613Z,87.92
2022-10-09T21:04:25.402Z,88.04
2022-10-09T21:09:32.286Z,88.35
2022-10-09T21:14:36.611Z,88.45
2022-10-09T21:19:38.261Z,88.42
2022-10-09T21:24:39.985Z,88.44
2022-10-09T21:29:41.684Z,88.68
2022-10-09T21:34:43.479Z,89.09
2022-10-09T21:39:45.284Z,89.07
2022-10-09T21:44:46.939Z,89.53
2022-10-09T21:49:48.945Z,89.30
2022-10-09T21:54:50.681Z,89.97
2022-10-09T21:59:52.523Z,89.94
2022-10-09T22:04:57.251Z,90.09
2022-10-09T22:09:58.992Z,89.91
2022-10-09T22:15:00.676Z,90.43
2022-10-09T22:20:02.486Z,90.30
2022-10-09T22:25:04.681Z,90.54
2022-10-09T22:30:07.401Z,90.37
2022-10-09T22:35:09.227Z,90.74
2022-10-09T22:40:11.030Z,90.23
2022-10-09T22:45:12.826Z,90.36
2022-10-09T22:50:14.608Z,90.56
2022-10-09T22:55:16.362Z,90.53
2022-10-09T23:00:18.119Z,90.42
2022-10-09T23:05:19.902Z,90.71
2022-10-09T23:10:21.599Z,91.16
2022-10-09T23:15:23.329Z,91.23
2022-10-09T23:20:25.055Z,91.26
2022-10-09T23:25:26.715Z,91.06
2022-10-09T23:30:28.405Z,91.48
2022-10-09T23:35:30.160Z,91.47
2022-10-09T23:40:31.832Z,91.49
2022-10-09T23:45:33.535Z,91.42
2022-10-09T23:50:35.253Z,91.46
2022-10-09T23:55:36.976Z,91.57
